sensor_id;sensor_type;location;lat;lon;timestamp;pressure;altitude;pressure_sealevel;temperature;humidity
15604;BME280;7902;49.042;9.092;2023-02-10T00:01:26;100972.84;;;2.76;54.99
15604;BME280;7902;49.042;9.092;2023-02-10T00:03:52;100969.38;;;2.77;55.43
15604;BME280;7902;49.042;9.092;2023-02-10T00:06:19;100965.00;;;2.82;54.55
15604;BME280;7902;49.042;9.092;2023-02-10T00:08:49;100967.59;;;2.81;55.08
15604;BME280;7902;49.042;9.092;2023-02-10T00:11:16;100965.88;;;2.81;54.68
15604;BME280;7902;49.042;9.092;2023-02-10T00:13:42;100968.47;;;2.78;55.57
15604;BME280;7902;49.042;9.092;2023-02-10T00:16:11;100960.41;;;3.05;54.50
15604;BME280;7902;49.042;9.092;2023-02-10T00:18:38;100963.03;;;3.02;54.28
15604;BME280;7902;49.042;9.092;2023-02-10T00:21:09;100964.72;;;3.05;54.27
15604;BME280;7902;49.042;9.092;2023-02-10T00:23:36;100966.41;;;3.07;54.93
15604;BME280;7902;49.042;9.092;2023-02-10T00:26:03;100971.72;;;2.98;55.05
15604;BME280;7902;49.042;9.092;2023-02-10T00:28:31;100978.75;;;2.87;54.67
15604;BME280;7902;49.042;9.092;2023-02-10T00:30:57;100979.56;;;2.95;54.97
15604;BME280;7902;49.042;9.092;2023-02-10T00:33:23;100986.47;;;2.93;54.73
15604;BME280;7902;49.042;9.092;2023-02-10T00:35:49;100998.69;;;2.87;54.68
15604;BME280;7902;49.042;9.092;2023-02-10T00:38:15;100995.13;;;2.95;54.60
15604;BME280;7902;49.042;9.092;2023-02-10T00:40:41;100998.53;;;2.97;54.95
15604;BME280;7902;49.042;9.092;2023-02-10T00:43:07;101004.66;;;2.93;54.70
15604;BME280;7902;49.042;9.092;2023-02-10T00:45:33;101007.28;;;2.89;54.99
15604;BME280;7902;49.042;9.092;2023-02-10T00:47:59;101007.34;;;2.83;54.80
15604;BME280;7902;49.042;9.092;2023-02-10T00:50:24;101003.94;;;2.79;55.45
15604;BME280;7902;49.042;9.092;2023-02-10T00:52:50;101008.25;;;2.79;54.49
15604;BME280;7902;49.042;9.092;2023-02-10T00:55:16;101003.03;;;2.83;55.03
15604;BME280;7902;49.042;9.092;2023-02-10T00:57:42;100998.75;;;2.82;54.58
15604;BME280;7902;49.042;9.092;2023-02-10T01:00:08;101001.44;;;2.70;55.88
15604;BME280;7902;49.042;9.092;2023-02-10T01:02:34;100991.06;;;2.69;55.01
15604;BME280;7902;49.042;9.092;2023-02-10T01:05:00;101004.88;;;2.72;55.08
15604;BME280;7902;49.042;9.092;2023-02-10T01:07:29;101014.38;;;2.73;55.08
15604;BME280;7902;49.042;9.092;2023-02-10T01:09:55;101011.00;;;2.68;55.84
15604;BME280;7902;49.042;9.092;2023-02-10T01:12:21;101012.78;;;2.61;55.86
15604;BME280;7902;49.042;9.092;2023-02-10T01:14:47;101011.97;;;2.55;55.22
15604;BME280;7902;49.042;9.092;2023-02-10T01:17:13;101021.47;;;2.57;55.87
15604;BME280;7902;49.042;9.092;2023-02-10T01:19:38;101017.06;;;2.64;55.63
15604;BME280;7902;49.042;9.092;2023-02-10T01:22:04;101021.28;;;2.76;55.60
15604;BME280;7902;49.042;9.092;2023-02-10T01:24:31;101017.81;;;2.77;55.15
15604;BME280;7902;49.042;9.092;2023-02-10T01:26:57;101018.53;;;2.89;54.66
15604;BME280;7902;49.042;9.092;2023-02-10T01:29:23;101027.28;;;2.79;54.82
15604;BME280;7902;49.042;9.092;2023-02-10T01:31:49;101028.28;;;2.66;55.78
15604;BME280;7902;49.042;9.092;2023-02-10T01:34:15;101020.50;;;2.66;55.42
15604;BME280;7902;49.042;9.092;2023-02-10T01:36:40;101025.75;;;2.60;55.78
15604;BME280;7902;49.042;9.092;2023-02-10T01:39:06;101029.16;;;2.65;55.66
15604;BME280;7902;49.042;9.092;2023-02-10T01:41:33;101031.78;;;2.60;55.87
15604;BME280;7902;49.042;9.092;2023-02-10T01:45:07;101035.25;;;2.59;55.96
15604;BME280;7902;49.042;9.092;2023-02-10T01:46:49;101026.56;;;2.67;55.26
15604;BME280;7902;49.042;9.092;2023-02-10T01:49:17;101024.88;;;2.61;55.78
15604;BME280;7902;49.042;9.092;2023-02-10T01:52:18;101029.28;;;2.53;56.19
15604;BME280;7902;49.042;9.092;2023-02-10T01:54:49;101033.59;;;2.51;55.58
15604;BME280;7902;49.042;9.092;2023-02-10T01:57:16;101038.81;;;2.49;55.45
15604;BME280;7902;49.042;9.092;2023-02-10T01:59:43;101039.78;;;2.38;56.19
15604;BME280;7902;49.042;9.092;2023-02-10T02:02:10;101041.47;;;2.45;56.19
15604;BME280;7902;49.042;9.092;2023-02-10T02:04:42;101040.59;;;2.43;55.54
15604;BME280;7902;49.042;9.092;2023-02-10T02:07:12;101036.31;;;2.36;55.81
15604;BME280;7902;49.042;9.092;2023-02-10T02:09:38;101044.19;;;2.30;56.89
15604;BME280;7902;49.042;9.092;2023-02-10T02:17:33;101051.94;;;2.27;55.71
15604;BME280;7902;49.042;9.092;2023-02-10T02:26:33;101050.25;;;2.26;55.54
15604;BME280;7902;49.042;9.092;2023-02-10T02:29:21;101054.53;;;2.30;55.62
15604;BME280;7902;49.042;9.092;2023-02-10T02:32:20;101055.38;;;2.33;55.90
15604;BME280;7902;49.042;9.092;2023-02-10T02:35:01;101057.16;;;2.24;56.24
15604;BME280;7902;49.042;9.092;2023-02-10T02:37:31;101059.72;;;2.27;56.27
15604;BME280;7902;49.042;9.092;2023-02-10T02:39:59;101053.75;;;2.18;56.83
15604;BME280;7902;49.042;9.092;2023-02-10T02:42:30;101055.41;;;2.27;56.45
15604;BME280;7902;49.042;9.092;2023-02-10T02:45:13;101045.91;;;2.28;55.55
15604;BME280;7902;49.042;9.092;2023-02-10T02:50:54;101050.25;;;2.22;56.99
15604;BME280;7902;49.042;9.092;2023-02-10T02:56:18;101054.50;;;2.34;56.42
15604;BME280;7902;49.042;9.092;2023-02-10T03:01:23;101052.81;;;2.29;56.36
15604;BME280;7902;49.042;9.092;2023-02-10T03:03:53;101056.13;;;2.49;55.70
15604;BME280;7902;49.042;9.092;2023-02-10T03:06:19;101054.50;;;2.33;55.97
15604;BME280;7902;49.042;9.092;2023-02-10T03:08:45;101055.28;;;2.41;56.30
15604;BME280;7902;49.042;9.092;2023-02-10T03:11:12;101064.88;;;2.31;55.88
15604;BME280;7902;49.042;9.092;2023-02-10T03:13:37;101064.88;;;2.31;56.74
15604;BME280;7902;49.042;9.092;2023-02-10T03:16:04;101062.34;;;2.24;56.32
15604;BME280;7902;49.042;9.092;2023-02-10T03:18:30;101060.63;;;2.26;55.98
15604;BME280;7902;49.042;9.092;2023-02-10T03:20:56;101058.03;;;2.24;56.06
15604;BME280;7902;49.042;9.092;2023-02-10T03:23:21;101066.63;;;2.29;56.33
15604;BME280;7902;49.042;9.092;2023-02-10T03:25:47;101066.69;;;2.21;56.68
15604;BME280;7902;49.042;9.092;2023-02-10T03:28:14;101070.16;;;2.17;56.58
15604;BME280;7902;49.042;9.092;2023-02-10T03:30:40;101072.72;;;2.22;56.67
15604;BME280;7902;49.042;9.092;2023-02-10T03:33:13;101071.00;;;2.22;56.69
15604;BME280;7902;49.042;9.092;2023-02-10T03:35:40;101077.88;;;2.30;56.98
15604;BME280;7902;49.042;9.092;2023-02-10T03:38:06;101068.34;;;2.35;56.22
15604;BME280;7902;49.042;9.092;2023-02-10T03:40:32;101074.41;;;2.26;56.22
15604;BME280;7902;49.042;9.092;2023-02-10T03:42:58;101079.56;;;2.34;56.38
15604;BME280;7902;49.042;9.092;2023-02-10T03:45:24;101082.19;;;2.28;57.15
15604;BME280;7902;49.042;9.092;2023-02-10T03:47:50;101073.50;;;2.35;56.08
15604;BME280;7902;49.042;9.092;2023-02-10T03:50:16;101089.06;;;2.33;55.90
15604;BME280;7902;49.042;9.092;2023-02-10T03:52:42;101093.38;;;2.34;56.57
15604;BME280;7902;49.042;9.092;2023-02-10T03:55:08;101087.38;;;2.28;56.31
15604;BME280;7902;49.042;9.092;2023-02-10T03:57:34;101093.44;;;2.30;56.00
15604;BME280;7902;49.042;9.092;2023-02-10T04:00:00;101088.25;;;2.27;57.09
15604;BME280;7902;49.042;9.092;2023-02-10T04:02:26;101089.13;;;2.26;57.10
15604;BME280;7902;49.042;9.092;2023-02-10T04:04:51;101084.78;;;2.28;56.22
15604;BME280;7902;49.042;9.092;2023-02-10T04:07:17;101086.56;;;2.26;57.27
15604;BME280;7902;49.042;9.092;2023-02-10T04:09:43;101077.91;;;2.22;56.93
15604;BME280;7902;49.042;9.092;2023-02-10T04:12:09;101089.22;;;2.10;57.06
15604;BME280;7902;49.042;9.092;2023-02-10T04:14:35;101078.88;;;2.09;57.29
15604;BME280;7902;49.042;9.092;2023-02-10T04:17:01;101080.56;;;2.16;56.83
15604;BME280;7902;49.042;9.092;2023-02-10T04:19:27;101090.06;;;2.12;56.69
15604;BME280;7902;49.042;9.092;2023-02-10T04:21:53;101096.13;;;2.13;56.65
15604;BME280;7902;49.042;9.092;2023-02-10T04:24:19;101086.69;;;2.06;57.24
15604;BME280;7902;49.042;9.092;2023-02-10T04:26:44;101091.78;;;2.13;56.31
15604;BME280;7902;49.042;9.092;2023-02-10T04:29:10;101090.94;;;2.14;56.56
15604;BME280;7902;49.042;9.092;2023-02-10T04:31:36;101093.50;;;2.17;56.84
15604;BME280;7902;49.042;9.092;2023-02-10T04:34:02;101097.88;;;2.11;57.14
15604;BME280;7902;49.042;9.092;2023-02-10T04:36:28;101095.25;;;2.12;56.69
15604;BME280;7902;49.042;9.092;2023-02-10T04:38:54;101092.75;;;2.02;57.75
15604;BME280;7902;49.042;9.092;2023-02-10T04:41:20;101101.34;;;2.04;57.27
15604;BME280;7902;49.042;9.092;2023-02-10T04:43:46;101093.59;;;2.05;57.33
15604;BME280;7902;49.042;9.092;2023-02-10T04:46:12;101101.31;;;2.11;56.50
15604;BME280;7902;49.042;9.092;2023-02-10T04:48:37;101098.72;;;2.08;57.35
15604;BME280;7902;49.042;9.092;2023-02-10T04:51:10;101109.09;;;2.08;57.41
15604;BME280;7902;49.042;9.092;2023-02-10T04:53:37;101110.78;;;2.14;56.54
15604;BME280;7902;49.042;9.092;2023-02-10T04:56:04;101107.38;;;2.10;56.23
15604;BME280;7902;49.042;9.092;2023-02-10T04:58:30;101119.47;;;2.11;56.63
15604;BME280;7902;49.042;9.092;2023-02-10T05:00:56;101110.84;;;2.09;56.97
15604;BME280;7902;49.042;9.092;2023-02-10T05:03:23;101111.72;;;2.04;56.72
15604;BME280;7902;49.042;9.092;2023-02-10T05:05:49;101117.81;;;1.95;57.34
15604;BME280;7902;49.042;9.092;2023-02-10T05:08:18;101120.38;;;1.98;57.58
15604;BME280;7902;49.042;9.092;2023-02-10T05:10:51;101121.28;;;1.97;56.97
15604;BME280;7902;49.042;9.092;2023-02-10T05:13:17;101126.47;;;1.90;57.12
15604;BME280;7902;49.042;9.092;2023-02-10T05:15:44;101122.91;;;2.07;56.88
15604;BME280;7902;49.042;9.092;2023-02-10T05:18:10;101129.84;;;2.11;56.71
15604;BME280;7902;49.042;9.092;2023-02-10T05:20:36;101128.16;;;1.98;56.97
15604;BME280;7902;49.042;9.092;2023-02-10T05:23:02;101126.34;;;2.12;57.13
15604;BME280;7902;49.042;9.092;2023-02-10T05:25:28;101131.59;;;2.06;56.12
15604;BME280;7902;49.042;9.092;2023-02-10T05:27:54;101131.63;;;2.00;56.22
15604;BME280;7902;49.042;9.092;2023-02-10T05:30:20;101142.03;;;1.85;57.15
15604;BME280;7902;49.042;9.092;2023-02-10T05:32:46;101139.47;;;1.81;57.74
15604;BME280;7902;49.042;9.092;2023-02-10T05:35:12;101133.44;;;1.83;57.04
15604;BME280;7902;49.042;9.092;2023-02-10T05:37:38;101143.84;;;1.74;57.78
15604;BME280;7902;49.042;9.092;2023-02-10T05:40:04;101146.41;;;1.77;57.86
15604;BME280;7902;49.042;9.092;2023-02-10T05:42:30;101142.09;;;1.70;57.53
15604;BME280;7902;49.042;9.092;2023-02-10T05:44:56;101144.72;;;1.61;57.59
15604;BME280;7902;49.042;9.092;2023-02-10T05:47:22;101151.63;;;1.65;57.17
15604;BME280;7902;49.042;9.092;2023-02-10T05:49:48;101147.31;;;1.64;57.83
15604;BME280;7902;49.042;9.092;2023-02-10T05:52:14;101149.88;;;1.70;57.25
15604;BME280;7902;49.042;9.092;2023-02-10T05:54:39;101154.25;;;1.59;57.32
15604;BME280;7902;49.042;9.092;2023-02-10T05:57:06;101154.25;;;1.56;57.33
15604;BME280;7902;49.042;9.092;2023-02-10T05:59:32;101167.16;;;1.69;56.92
15604;BME280;7902;49.042;9.092;2023-02-10T06:01:58;101167.16;;;1.65;57.01
15604;BME280;7902;49.042;9.092;2023-02-10T06:04:23;101183.56;;;1.68;57.62
15604;BME280;7902;49.042;9.092;2023-02-10T06:06:50;101188.75;;;1.64;57.36
15604;BME280;7902;49.042;9.092;2023-02-10T06:09:16;101183.59;;;1.64;56.82
15604;BME280;7902;49.042;9.092;2023-02-10T06:11:42;101187.03;;;1.63;57.32
15604;BME280;7902;49.042;9.092;2023-02-10T06:14:08;101199.06;;;1.70;56.85
15604;BME280;7902;49.042;9.092;2023-02-10T06:16:34;101195.69;;;1.59;57.47
15604;BME280;7902;49.042;9.092;2023-02-10T06:19:00;101191.38;;;1.55;57.57
15604;BME280;7902;49.042;9.092;2023-02-10T06:21:26;101196.53;;;1.56;57.45
15604;BME280;7902;49.042;9.092;2023-02-10T06:23:52;101197.41;;;1.57;57.44
15604;BME280;7902;49.042;9.092;2023-02-10T06:26:18;101202.59;;;1.49;56.91
15604;BME280;7902;49.042;9.092;2023-02-10T06:28:44;101206.03;;;1.47;57.28
15604;BME280;7902;49.042;9.092;2023-02-10T06:31:10;101212.97;;;1.34;57.53
15604;BME280;7902;49.042;9.092;2023-02-10T06:33:36;101209.53;;;1.29;57.78
15604;BME280;7902;49.042;9.092;2023-02-10T06:36:03;101221.63;;;1.25;57.60
15604;BME280;7902;49.042;9.092;2023-02-10T06:38:32;101208.69;;;1.25;58.40
15604;BME280;7902;49.042;9.092;2023-02-10T06:40:58;101210.41;;;1.22;57.40
15604;BME280;7902;49.042;9.092;2023-02-10T06:43:24;101223.34;;;1.20;57.82
15604;BME280;7902;49.042;9.092;2023-02-10T06:45:50;101215.59;;;1.11;57.58
15604;BME280;7902;49.042;9.092;2023-02-10T06:48:16;101216.44;;;1.09;57.23
15604;BME280;7902;49.042;9.092;2023-02-10T06:50:42;101222.47;;;1.14;57.88
15604;BME280;7902;49.042;9.092;2023-02-10T06:53:07;101234.56;;;1.07;57.20
15604;BME280;7902;49.042;9.092;2023-02-10T06:55:33;101231.97;;;1.06;57.57
15604;BME280;7902;49.042;9.092;2023-02-10T06:58:01;101224.19;;;1.09;57.74
15604;BME280;7902;49.042;9.092;2023-02-10T07:00:28;101224.22;;;1.10;57.43
15604;BME280;7902;49.042;9.092;2023-02-10T07:02:54;101223.34;;;1.14;57.78
15604;BME280;7902;49.042;9.092;2023-02-10T07:05:20;101227.66;;;1.17;57.21
15604;BME280;7902;49.042;9.092;2023-02-10T07:07:46;101224.19;;;1.24;56.64
15604;BME280;7902;49.042;9.092;2023-02-10T07:10:12;101229.38;;;1.19;57.94
15604;BME280;7902;49.042;9.092;2023-02-10T07:12:38;101231.13;;;1.22;57.15
15604;BME280;7902;49.042;9.092;2023-02-10T07:15:05;101227.63;;;1.23;57.79
15604;BME280;7902;49.042;9.092;2023-02-10T07:17:31;101231.97;;;1.31;57.96
15604;BME280;7902;49.042;9.092;2023-02-10T07:19:57;101235.41;;;1.24;57.81
15604;BME280;7902;49.042;9.092;2023-02-10T07:22:23;101227.66;;;1.46;57.00
15604;BME280;7902;49.042;9.092;2023-02-10T07:24:49;101232.78;;;1.47;57.37
15604;BME280;7902;49.042;9.092;2023-02-10T07:27:15;101244.00;;;1.54;57.54
15604;BME280;7902;49.042;9.092;2023-02-10T07:29:41;101242.31;;;1.50;57.54
15604;BME280;7902;49.042;9.092;2023-02-10T07:32:07;101241.44;;;1.48;57.80
15604;BME280;7902;49.042;9.092;2023-02-10T07:34:33;101240.59;;;1.46;57.56
15604;BME280;7902;49.042;9.092;2023-02-10T07:37:00;101231.88;;;1.71;57.00
15604;BME280;7902;49.042;9.092;2023-02-10T07:39:26;101228.44;;;1.78;57.80
15604;BME280;7902;49.042;9.092;2023-02-10T07:41:52;101226.72;;;1.79;57.62
15604;BME280;7902;49.042;9.092;2023-02-10T07:44:19;101221.50;;;1.80;56.63
15604;BME280;7902;49.042;9.092;2023-02-10T07:46:47;101219.75;;;1.79;56.89
15604;BME280;7902;49.042;9.092;2023-02-10T07:49:13;101216.34;;;1.71;57.31
15604;BME280;7902;49.042;9.092;2023-02-10T07:51:39;101214.56;;;1.85;57.45
15604;BME280;7902;49.042;9.092;2023-02-10T07:54:05;101230.97;;;1.96;57.37
15604;BME280;7902;49.042;9.092;2023-02-10T07:56:32;101224.88;;;2.06;56.87
15604;BME280;7902;49.042;9.092;2023-02-10T07:58:58;101225.66;;;2.22;56.22
15604;BME280;7902;49.042;9.092;2023-02-10T08:01:24;101230.91;;;2.08;57.18
15604;BME280;7902;49.042;9.092;2023-02-10T08:03:50;101231.78;;;2.04;57.30
15604;BME280;7902;49.042;9.092;2023-02-10T08:06:20;101234.41;;;2.01;57.44
15604;BME280;7902;49.042;9.092;2023-02-10T08:08:47;101236.09;;;2.05;57.56
15604;BME280;7902;49.042;9.092;2023-02-10T08:11:13;101236.09;;;2.11;57.38
15604;BME280;7902;49.042;9.092;2023-02-10T08:13:39;101232.59;;;2.14;56.80
15604;BME280;7902;49.042;9.092;2023-02-10T08:16:05;101243.00;;;2.11;57.76
15604;BME280;7902;49.042;9.092;2023-02-10T08:18:34;101247.22;;;2.27;57.20
15604;BME280;7902;49.042;9.092;2023-02-10T08:21:01;101242.91;;;2.29;57.10
15604;BME280;7902;49.042;9.092;2023-02-10T08:23:27;101238.56;;;2.33;56.97
15604;BME280;7902;49.042;9.092;2023-02-10T08:25:53;101243.78;;;2.30;56.51
15604;BME280;7902;49.042;9.092;2023-02-10T08:28:19;101247.22;;;2.29;57.46
15604;BME280;7902;49.042;9.092;2023-02-10T08:30:45;101248.06;;;2.35;57.33
15604;BME280;7902;49.042;9.092;2023-02-10T08:33:11;101241.97;;;2.44;56.92
15604;BME280;7902;49.042;9.092;2023-02-10T08:35:38;101241.03;;;2.58;57.26
15604;BME280;7902;49.042;9.092;2023-02-10T08:38:04;101231.47;;;2.68;56.07
15604;BME280;7902;49.042;9.092;2023-02-10T08:40:32;101234.94;;;2.59;56.59
15604;BME280;7902;49.042;9.092;2023-02-10T08:42:58;101240.97;;;2.64;56.75
15604;BME280;7902;49.042;9.092;2023-02-10T08:45:24;101244.44;;;2.67;56.71
15604;BME280;7902;49.042;9.092;2023-02-10T08:47:50;101235.72;;;2.74;56.25
15604;BME280;7902;49.042;9.092;2023-02-10T08:50:16;101239.22;;;2.70;56.53
15604;BME280;7902;49.042;9.092;2023-02-10T08:52:42;101242.69;;;2.72;56.97
15604;BME280;7902;49.042;9.092;2023-02-10T08:55:08;101248.63;;;2.84;56.77
15604;BME280;7902;49.042;9.092;2023-02-10T08:57:33;101243.47;;;2.81;56.77
15604;BME280;7902;49.042;9.092;2023-02-10T09:00:00;101247.78;;;2.85;56.82
15604;BME280;7902;49.042;9.092;2023-02-10T09:02:26;101247.66;;;2.99;56.18
15604;BME280;7902;49.042;9.092;2023-02-10T09:04:52;101256.28;;;3.04;56.01
15604;BME280;7902;49.042;9.092;2023-02-10T09:07:18;101257.03;;;3.17;56.23
15604;BME280;7902;49.042;9.092;2023-02-10T09:09:43;101257.94;;;3.13;55.96
15604;BME280;7902;49.042;9.092;2023-02-10T09:12:10;101258.81;;;3.15;55.89
15604;BME280;7902;49.042;9.092;2023-02-10T09:14:38;101272.63;;;3.20;56.03
15604;BME280;7902;49.042;9.092;2023-02-10T09:17:05;101264.78;;;3.24;55.94
15604;BME280;7902;49.042;9.092;2023-02-10T09:19:34;101265.53;;;3.35;56.25
15604;BME280;7902;49.042;9.092;2023-02-10T09:22:02;101269.03;;;3.33;56.24
15604;BME280;7902;49.042;9.092;2023-02-10T09:24:27;101271.50;;;3.48;56.01
15604;BME280;7902;49.042;9.092;2023-02-10T09:26:53;101274.16;;;3.42;56.42
15604;BME280;7902;49.042;9.092;2023-02-10T09:29:19;101267.16;;;3.50;55.81
15604;BME280;7902;49.042;9.092;2023-02-10T09:31:45;101270.56;;;3.55;56.77
15604;BME280;7902;49.042;9.092;2023-02-10T09:34:11;101268.78;;;3.60;55.29
15604;BME280;7902;49.042;9.092;2023-02-10T09:36:37;101263.59;;;3.60;54.71
15604;BME280;7902;49.042;9.092;2023-02-10T09:39:03;101258.34;;;3.66;54.96
15604;BME280;7902;49.042;9.092;2023-02-10T09:44:26;101256.47;;;3.79;55.51
15604;BME280;7902;49.042;9.092;2023-02-10T09:53:21;101258.88;;;3.95;55.73
15604;BME280;7902;49.042;9.092;2023-02-10T09:55:52;101258.03;;;3.93;55.65
15604;BME280;7902;49.042;9.092;2023-02-10T10:01:10;101269.31;;;3.92;55.40
15604;BME280;7902;49.042;9.092;2023-02-10T10:03:50;101265.78;;;3.98;55.72
15604;BME280;7902;49.042;9.092;2023-02-10T10:06:22;101268.34;;;4.04;55.09
15604;BME280;7902;49.042;9.092;2023-02-10T10:14:32;101278.41;;;4.30;54.64
15604;BME280;7902;49.042;9.092;2023-02-10T10:20:09;101279.22;;;4.35;53.87
15604;BME280;7902;49.042;9.092;2023-02-10T10:25:53;101281.00;;;4.30;53.63
15604;BME280;7902;49.042;9.092;2023-02-10T10:29:00;101276.69;;;4.30;53.71
15604;BME280;7902;49.042;9.092;2023-02-10T10:31:34;101276.56;;;4.38;53.62
15604;BME280;7902;49.042;9.092;2023-02-10T10:34:10;101268.63;;;4.52;53.44
15604;BME280;7902;49.042;9.092;2023-02-10T10:36:41;101264.38;;;4.43;53.35
15604;BME280;7902;49.042;9.092;2023-02-10T10:41:55;101272.78;;;4.63;53.35
15604;BME280;7902;49.042;9.092;2023-02-10T10:44:22;101266.72;;;4.63;53.14
15604;BME280;7902;49.042;9.092;2023-02-10T10:46:55;101269.44;;;4.52;53.60
15604;BME280;7902;49.042;9.092;2023-02-10T10:49:26;101269.38;;;4.60;53.38
15604;BME280;7902;49.042;9.092;2023-02-10T10:51:52;101269.31;;;4.64;53.23
15604;BME280;7902;49.042;9.092;2023-02-10T10:54:20;101265.81;;;4.65;53.60
15604;BME280;7902;49.042;9.092;2023-02-10T10:56:50;101262.63;;;4.45;53.71
15604;BME280;7902;49.042;9.092;2023-02-10T10:59:38;101270.09;;;4.68;53.43
15604;BME280;7902;49.042;9.092;2023-02-10T11:02:16;101255.34;;;4.70;53.52
15604;BME280;7902;49.042;9.092;2023-02-10T11:04:42;101261.31;;;4.76;53.46
15604;BME280;7902;49.042;9.092;2023-02-10T11:07:16;101255.28;;;4.73;54.26
15604;BME280;7902;49.042;9.092;2023-02-10T11:09:53;101256.88;;;4.84;53.75
15604;BME280;7902;49.042;9.092;2023-02-10T11:12:38;101254.28;;;4.81;53.34
15604;BME280;7902;49.042;9.092;2023-02-10T11:15:31;101249.84;;;4.90;52.88
15604;BME280;7902;49.042;9.092;2023-02-10T11:18:00;101249.78;;;4.93;52.83
15604;BME280;7902;49.042;9.092;2023-02-10T11:20:30;101250.69;;;4.92;53.10
15604;BME280;7902;49.042;9.092;2023-02-10T11:23:02;101253.22;;;4.95;53.01
15604;BME280;7902;49.042;9.092;2023-02-10T11:25:35;101251.31;;;5.07;52.96
15604;BME280;7902;49.042;9.092;2023-02-10T11:28:03;101243.59;;;5.00;52.79
15604;BME280;7902;49.042;9.092;2023-02-10T11:30:34;101248.59;;;5.13;53.11
15604;BME280;7902;49.042;9.092;2023-02-10T11:33:03;101239.78;;;5.22;52.73
15604;BME280;7902;49.042;9.092;2023-02-10T11:35:30;101252.97;;;5.13;52.97
15604;BME280;7902;49.042;9.092;2023-02-10T11:38:04;101238.25;;;5.09;52.96
15604;BME280;7902;49.042;9.092;2023-02-10T11:43:17;101234.81;;;5.08;53.26
15604;BME280;7902;49.042;9.092;2023-02-10T11:45:53;101232.13;;;5.13;53.93
15604;BME280;7902;49.042;9.092;2023-02-10T11:48:22;101237.28;;;5.16;54.03
15604;BME280;7902;49.042;9.092;2023-02-10T11:51:03;101233.88;;;5.12;53.47
15604;BME280;7902;49.042;9.092;2023-02-10T11:53:33;101231.13;;;5.18;53.06
15604;BME280;7902;49.042;9.092;2023-02-10T11:59:35;101229.47;;;5.14;53.28
15604;BME280;7902;49.042;9.092;2023-02-10T12:10:50;101209.25;;;5.32;53.10
15604;BME280;7902;49.042;9.092;2023-02-10T12:13:29;101213.75;;;5.22;53.43
15604;BME280;7902;49.042;9.092;2023-02-10T12:16:23;101206.81;;;5.19;53.52
15604;BME280;7902;49.042;9.092;2023-02-10T12:21:45;101212.03;;;5.19;53.66
15604;BME280;7902;49.042;9.092;2023-02-10T12:27:21;101200.56;;;5.31;53.15
15604;BME280;7902;49.042;9.092;2023-02-10T12:32:43;101186.75;;;5.26;53.35
15604;BME280;7902;49.042;9.092;2023-02-10T12:35:36;101188.31;;;5.36;53.62
15604;BME280;7902;49.042;9.092;2023-02-10T12:38:30;101188.00;;;5.51;53.13
15604;BME280;7902;49.042;9.092;2023-02-10T12:47:14;101189.72;;;5.52;52.96
15604;BME280;7902;49.042;9.092;2023-02-10T12:52:54;101181.66;;;5.66;53.29
15604;BME280;7902;49.042;9.092;2023-02-10T12:55:27;101172.94;;;5.68;53.04
15604;BME280;7902;49.042;9.092;2023-02-10T12:58:14;101178.34;;;5.56;53.69
15604;BME280;7902;49.042;9.092;2023-02-10T13:00:48;101177.41;;;5.60;53.41
15604;BME280;7902;49.042;9.092;2023-02-10T13:03:38;101177.25;;;5.69;52.63
15604;BME280;7902;49.042;9.092;2023-02-10T13:06:34;101175.41;;;5.74;52.97
15604;BME280;7902;49.042;9.092;2023-02-10T13:09:13;101167.66;;;5.71;53.86
15604;BME280;7902;49.042;9.092;2023-02-10T13:14:39;101161.28;;;5.88;52.92
15604;BME280;7902;49.042;9.092;2023-02-10T13:17:07;101161.28;;;5.85;53.45
15604;BME280;7902;49.042;9.092;2023-02-10T13:19:45;101157.81;;;5.84;53.14
15604;BME280;7902;49.042;9.092;2023-02-10T13:27:30;101163.72;;;5.95;52.63
15604;BME280;7902;49.042;9.092;2023-02-10T13:35:58;101156.00;;;5.91;53.12
15604;BME280;7902;49.042;9.092;2023-02-10T13:38:24;101163.88;;;5.86;52.93
15604;BME280;7902;49.042;9.092;2023-02-10T13:40:56;101154.06;;;6.00;52.80
15604;BME280;7902;49.042;9.092;2023-02-10T13:43:44;101160.94;;;6.03;53.21
15604;BME280;7902;49.042;9.092;2023-02-10T13:46:23;101164.47;;;6.02;53.03
15604;BME280;7902;49.042;9.092;2023-02-10T13:48:55;101160.09;;;6.02;52.70
15604;BME280;7902;49.042;9.092;2023-02-10T13:51:37;101164.97;;;6.17;53.05
15604;BME280;7902;49.042;9.092;2023-02-10T13:54:04;101164.31;;;6.08;53.21
15604;BME280;7902;49.042;9.092;2023-02-10T13:56:32;101164.09;;;6.17;52.73
15604;BME280;7902;49.042;9.092;2023-02-10T14:01:49;101165.50;;;6.33;52.62
15604;BME280;7902;49.042;9.092;2023-02-10T14:04:38;101162.03;;;6.33;52.54
15604;BME280;7902;49.042;9.092;2023-02-10T14:12:27;101159.50;;;6.30;52.79
15604;BME280;7902;49.042;9.092;2023-02-10T14:14:54;101158.22;;;6.47;52.41
15604;BME280;7902;49.042;9.092;2023-02-10T14:17:24;101159.22;;;6.42;52.64
15604;BME280;7902;49.042;9.092;2023-02-10T14:19:56;101158.34;;;6.41;52.49
15604;BME280;7902;49.042;9.092;2023-02-10T14:22:33;101157.44;;;6.44;52.33
15604;BME280;7902;49.042;9.092;2023-02-10T14:25:16;101156.72;;;6.37;52.48
15604;BME280;7902;49.042;9.092;2023-02-10T14:27:48;101155.69;;;6.44;52.46
15604;BME280;7902;49.042;9.092;2023-02-10T14:30:31;101147.78;;;6.47;52.49
15604;BME280;7902;49.042;9.092;2023-02-10T14:32:59;101154.31;;;6.65;52.05
15604;BME280;7902;49.042;9.092;2023-02-10T14:35:26;101147.31;;;6.67;51.98
15604;BME280;7902;49.042;9.092;2023-02-10T14:37:58;101153.69;;;6.55;51.87
15604;BME280;7902;49.042;9.092;2023-02-10T14:40:26;101148.22;;;6.65;52.43
15604;BME280;7902;49.042;9.092;2023-02-10T14:42:53;101148.22;;;6.66;51.96
15604;BME280;7902;49.042;9.092;2023-02-10T14:45:21;101143.97;;;6.60;52.08
15604;BME280;7902;49.042;9.092;2023-02-10T14:47:49;101149.28;;;6.57;52.70
15604;BME280;7902;49.042;9.092;2023-02-10T14:50:30;101145.56;;;6.68;52.30
15604;BME280;7902;49.042;9.092;2023-02-10T14:52:58;101154.09;;;6.74;52.27
15604;BME280;7902;49.042;9.092;2023-02-10T15:00:33;101145.41;;;6.74;52.33
15604;BME280;7902;49.042;9.092;2023-02-10T15:03:00;101138.84;;;6.57;52.83
15604;BME280;7902;49.042;9.092;2023-02-10T15:05:32;101138.41;;;6.76;52.17
15604;BME280;7902;49.042;9.092;2023-02-10T15:08:00;101143.84;;;6.67;52.88